Time;durP1;ratioP1;P1;durP2;ratioP2;P2;SDS_P1;SDS_P2;PMS_P1;PMS_P2;Temp;Humidity;BMP_temperature;BMP_pressure;BME280_temperature;BME280_humidity;BME280_pressure;Samples;Min_cycle;Max_cycle;Signal;HPM_P1;HPM_P2
2022/06/21 00:01:10;;;;;;;2.30;1.73;;;;;;;;;;5072461;28;20469;-80
2022/06/21 00:03:38;;;;;;;2.17;1.90;;;;;;;;;;5060880;28;20469;-78
2022/06/21 00:06:05;;;;;;;2.30;1.77;;;;;;;;;;5074059;28;20498;-78
2022/06/21 00:08:34;;;;;;;1.90;1.80;;;;;;;;;;5065902;28;20937;-78
2022/06/21 00:11:02;;;;;;;1.80;1.70;;;;;;;;;;5054041;28;20465;-79
2022/06/21 00:13:30;;;;;;;1.87;1.87;;;;;;;;;;5055554;28;21004;-78
2022/06/21 00:15:59;;;;;;;1.80;1.70;;;;;;;;;;5055634;28;20500;-79
2022/06/21 00:18:28;;;;;;;1.83;1.70;;;;;;;;;;5053656;28;21124;-78
2022/06/21 00:20:56;;;;;;;2.00;1.90;;;;;;;;;;5053569;28;20487;-78
2022/06/21 00:23:26;;;;;;;2.00;1.90;;;;;;;;;;5053773;28;20481;-79
2022/06/21 00:25:53;;;;;;;2.37;2.10;;;;;;;;;;5053977;28;20454;-79
2022/06/21 00:28:21;;;;;;;1.93;1.83;;;;;;;;;;5054026;28;20450;-78
2022/06/21 00:30:49;;;;;;;1.80;1.70;;;;;;;;;;5053656;28;20468;-78
2022/06/21 00:33:19;;;;;;;2.03;1.90;;;;;;;;;;5053377;28;20473;-80
2022/06/21 00:35:47;;;;;;;1.50;1.50;;;;;;;;;;5053998;28;20450;-78
2022/06/21 00:38:16;;;;;;;1.97;1.83;;;;;;;;;;5053486;28;20452;-78
2022/06/21 00:40:44;;;;;;;1.93;1.80;;;;;;;;;;5053614;28;20461;-79
2022/06/21 00:43:14;;;;;;;1.70;1.60;;;;;;;;;;5053618;28;20485;-80
2022/06/21 00:45:43;;;;;;;1.80;1.60;;;;;;;;;;5052980;28;20488;-78
2022/06/21 00:48:12;;;;;;;1.70;1.60;;;;;;;;;;5053427;28;20449;-80
2022/06/21 00:50:42;;;;;;;1.77;1.67;;;;;;;;;;5053235;28;20457;-79
2022/06/21 00:53:10;;;;;;;1.73;1.63;;;;;;;;;;5052975;28;20511;-78
2022/06/21 00:55:46;;;;;;;2.13;1.90;;;;;;;;;;5053100;28;20460;-78
2022/06/21 00:58:14;;;;;;;1.50;1.50;;;;;;;;;;5053565;28;20468;-78
2022/06/21 01:00:46;;;;;;;1.57;1.47;;;;;;;;;;5055051;28;20466;-78
2022/06/21 01:03:15;;;;;;;1.63;1.53;;;;;;;;;;5053117;28;20458;-78
2022/06/21 01:05:44;;;;;;;2.30;2.10;;;;;;;;;;5053223;28;20441;-79
2022/06/21 01:08:12;;;;;;;1.70;1.70;;;;;;;;;;5053305;28;20438;-79
2022/06/21 01:10:40;;;;;;;2.00;1.90;;;;;;;;;;5052620;28;20453;-78
2022/06/21 01:13:12;;;;;;;2.33;2.13;;;;;;;;;;5053300;28;20434;-79
2022/06/21 01:15:40;;;;;;;4.00;2.30;;;;;;;;;;5053063;28;20429;-80
2022/06/21 01:18:09;;;;;;;2.07;1.97;;;;;;;;;;5053228;28;20449;-78
2022/06/21 01:20:38;;;;;;;1.57;1.47;;;;;;;;;;5057805;28;20519;-79
2022/06/21 01:23:16;;;;;;;2.60;2.00;;;;;;;;;;5058586;28;20538;-79
2022/06/21 01:25:47;;;;;;;2.00;1.80;;;;;;;;;;5059194;28;20767;-78
2022/06/21 01:28:15;;;;;;;2.20;1.83;;;;;;;;;;5058517;28;20441;-78
2022/06/21 01:30:44;;;;;;;2.17;2.03;;;;;;;;;;5063164;28;20511;-78
2022/06/21 01:33:12;;;;;;;1.83;1.73;;;;;;;;;;5057642;28;20499;-78
2022/06/21 01:35:41;;;;;;;4.60;1.90;;;;;;;;;;5052827;28;20441;-79
2022/06/21 01:38:10;;;;;;;1.80;1.70;;;;;;;;;;5052624;28;20789;-78
2022/06/21 01:40:40;;;;;;;2.20;2.00;;;;;;;;;;5052595;28;20469;-79
2022/06/21 01:43:09;;;;;;;2.00;1.90;;;;;;;;;;5052269;28;20473;-79
2022/06/21 01:45:39;;;;;;;2.37;2.17;;;;;;;;;;5052290;28;20453;-78
2022/06/21 01:48:09;;;;;;;1.97;1.87;;;;;;;;;;5052699;28;20430;-78
2022/06/21 01:50:37;;;;;;;1.50;1.50;;;;;;;;;;5052603;28;20542;-78
2022/06/21 01:53:04;;;;;;;2.03;1.70;;;;;;;;;;5053873;28;20449;-79
2022/06/21 01:55:34;;;;;;;1.73;1.63;;;;;;;;;;5056637;28;20511;-78
2022/06/21 01:58:02;;;;;;;4.53;2.10;;;;;;;;;;5057073;28;20507;-78
2022/06/21 02:00:31;;;;;;;2.50;2.30;;;;;;;;;;5055466;28;20461;-79
2022/06/21 02:03:02;;;;;;;3.17;2.00;;;;;;;;;;5066961;28;20480;-78
2022/06/21 02:05:32;;;;;;;2.50;2.20;;;;;;;;;;5069018;28;20501;-78
2022/06/21 02:08:01;;;;;;;3.47;2.17;;;;;;;;;;5065201;28;20472;-78
2022/06/21 02:10:30;;;;;;;2.20;2.10;;;;;;;;;;5053696;28;20528;-78
2022/06/21 02:12:59;;;;;;;2.23;2.10;;;;;;;;;;5055743;28;20446;-78
2022/06/21 02:15:29;;;;;;;2.40;2.10;;;;;;;;;;5074183;28;20516;-77
2022/06/21 02:17:58;;;;;;;2.00;1.90;;;;;;;;;;5073180;28;20535;-78
2022/06/21 02:20:28;;;;;;;1.70;1.70;;;;;;;;;;5073386;28;21041;-78
2022/06/21 02:22:55;;;;;;;2.27;2.17;;;;;;;;;;5072974;28;20476;-78
2022/06/21 02:25:24;;;;;;;7.60;2.10;;;;;;;;;;5073928;28;20436;-78
2022/06/21 02:27:52;;;;;;;2.30;2.10;;;;;;;;;;5073089;28;20429;-78
2022/06/21 02:30:20;;;;;;;2.77;2.10;;;;;;;;;;5074087;28;20460;-78
2022/06/21 02:32:48;;;;;;;2.10;2.00;;;;;;;;;;5074039;28;20526;-80
2022/06/21 02:35:19;;;;;;;2.30;2.00;;;;;;;;;;5073006;28;20437;-79
2022/06/21 02:37:49;;;;;;;3.43;1.93;;;;;;;;;;5074326;28;20433;-79
2022/06/21 02:40:19;;;;;;;2.33;2.13;;;;;;;;;;5073750;28;20464;-78
2022/06/21 02:42:47;;;;;;;2.20;2.10;;;;;;;;;;5075017;28;20482;-80
2022/06/21 02:45:20;;;;;;;2.13;2.00;;;;;;;;;;5073270;28;20814;-79
2022/06/21 02:47:47;;;;;;;2.23;2.03;;;;;;;;;;5074031;28;20437;-78
2022/06/21 02:50:22;;;;;;;2.73;2.20;;;;;;;;;;5072806;28;20460;-78
2022/06/21 02:52:51;;;;;;;2.60;2.50;;;;;;;;;;5074669;28;20896;-79
2022/06/21 02:55:27;;;;;;;2.20;2.00;;;;;;;;;;5074992;28;20441;-78
2022/06/21 02:57:57;;;;;;;2.27;2.10;;;;;;;;;;5072975;28;20470;-78
2022/06/21 03:00:24;;;;;;;2.40;2.30;;;;;;;;;;5073439;28;20518;-78
2022/06/21 03:02:52;;;;;;;2.60;2.40;;;;;;;;;;5073132;28;20441;-78
2022/06/21 03:05:21;;;;;;;2.40;2.30;;;;;;;;;;5071786;28;20885;-80
2022/06/21 03:07:53;;;;;;;2.97;2.77;;;;;;;;;;5071624;28;20888;-79
2022/06/21 03:10:29;;;;;;;2.00;1.90;;;;;;;;;;5073701;28;20471;-77
2022/06/21 03:13:00;;;;;;;2.93;2.70;;;;;;;;;;5075352;28;20448;-78
2022/06/21 03:15:27;;;;;;;2.60;2.40;;;;;;;;;;5075326;28;20521;-79
2022/06/21 03:17:56;;;;;;;2.50;2.40;;;;;;;;;;5075579;28;20445;-78
2022/06/21 03:20:23;;;;;;;2.90;2.23;;;;;;;;;;5075338;28;20468;-80
2022/06/21 03:22:51;;;;;;;2.57;2.40;;;;;;;;;;5074856;28;20444;-77
2022/06/21 03:25:21;;;;;;;2.60;2.50;;;;;;;;;;5075422;28;20446;-78
2022/06/21 03:27:53;;;;;;;3.13;2.20;;;;;;;;;;5075122;28;20474;-78
2022/06/21 03:30:21;;;;;;;2.60;2.40;;;;;;;;;;5075112;28;20467;-78
2022/06/21 03:32:50;;;;;;;2.63;2.43;;;;;;;;;;5074838;28;20448;-79
2022/06/21 03:35:17;;;;;;;2.93;2.73;;;;;;;;;;5075450;28;20436;-77
2022/06/21 03:37:45;;;;;;;2.27;2.17;;;;;;;;;;5074779;28;20451;-78
2022/06/21 03:43:05;;;;;;;2.30;2.20;;;;;;;;;;5074345;28;20923;-77
2022/06/21 03:45:34;;;;;;;3.23;2.87;;;;;;;;;;5074510;28;20998;-79
2022/06/21 03:48:05;;;;;;;2.30;2.10;;;;;;;;;;5074896;28;20452;-78
2022/06/21 03:50:33;;;;;;;5.17;2.87;;;;;;;;;;5074797;28;20460;-78
2022/06/21 03:53:03;;;;;;;2.60;2.40;;;;;;;;;;5074348;28;20865;-79
2022/06/21 03:55:35;;;;;;;2.70;2.30;;;;;;;;;;5074236;28;20418;-78
2022/06/21 03:58:05;;;;;;;2.60;2.30;;;;;;;;;;5074748;28;20424;-79
2022/06/21 04:00:33;;;;;;;2.10;2.00;;;;;;;;;;5074821;28;20469;-78
2022/06/21 04:03:05;;;;;;;2.90;2.70;;;;;;;;;;5074209;28;20924;-78
2022/06/21 04:05:33;;;;;;;3.37;2.30;;;;;;;;;;5074411;28;20474;-78
2022/06/21 04:08:02;;;;;;;3.20;2.60;;;;;;;;;;5074134;28;20502;-79
2022/06/21 04:10:32;;;;;;;3.03;2.80;;;;;;;;;;5074033;28;20460;-79
2022/06/21 04:13:02;;;;;;;2.30;2.20;;;;;;;;;;5074037;28;20440;-79
2022/06/21 04:15:33;;;;;;;2.40;2.30;;;;;;;;;;5074457;28;20436;-78
2022/06/21 04:18:03;;;;;;;2.90;2.70;;;;;;;;;;5073753;28;20845;-77
2022/06/21 04:20:32;;;;;;;2.80;2.60;;;;;;;;;;5073572;28;20996;-79
2022/06/21 04:23:02;;;;;;;2.53;2.43;;;;;;;;;;5066337;28;20733;-79
2022/06/21 04:25:33;;;;;;;3.20;2.40;;;;;;;;;;5074054;28;20410;-78
2022/06/21 04:28:03;;;;;;;2.87;2.37;;;;;;;;;;5074091;28;20828;-77
2022/06/21 04:30:34;;;;;;;3.17;2.97;;;;;;;;;;5074088;28;20445;-79
2022/06/21 04:33:05;;;;;;;3.13;2.93;;;;;;;;;;5073929;28;20506;-78
2022/06/21 04:35:33;;;;;;;3.30;3.10;;;;;;;;;;5074932;28;20470;-78
2022/06/21 04:38:04;;;;;;;4.53;3.13;;;;;;;;;;5074651;28;20448;-78
2022/06/21 04:40:33;;;;;;;4.40;2.80;;;;;;;;;;5073907;28;20554;-78
2022/06/21 04:43:03;;;;;;;4.40;2.90;;;;;;;;;;5073261;28;20960;-77
2022/06/21 04:45:34;;;;;;;3.73;2.60;;;;;;;;;;5073702;28;20456;-80
2022/06/21 04:48:10;;;;;;;3.10;2.83;;;;;;;;;;5073233;28;20425;-80
2022/06/21 04:50:40;;;;;;;3.50;2.80;;;;;;;;;;5073777;28;20522;-78
2022/06/21 04:53:11;;;;;;;3.43;2.70;;;;;;;;;;5072881;28;20940;-78
2022/06/21 04:55:42;;;;;;;4.27;2.43;;;;;;;;;;5073056;28;20778;-78
2022/06/21 04:58:09;;;;;;;6.23;2.93;;;;;;;;;;5072872;28;20487;-78
2022/06/21 05:00:38;;;;;;;3.07;2.83;;;;;;;;;;5072897;28;20541;-78
2022/06/21 05:03:07;;;;;;;4.23;2.83;;;;;;;;;;5072490;28;20441;-78
2022/06/21 05:05:36;;;;;;;3.53;2.87;;;;;;;;;;5072854;28;20545;-78
2022/06/21 05:08:04;;;;;;;3.93;2.87;;;;;;;;;;5063857;28;20465;-78
2022/06/21 05:10:35;;;;;;;4.53;3.03;;;;;;;;;;5060977;28;20514;-78
2022/06/21 05:13:03;;;;;;;4.73;3.03;;;;;;;;;;5072297;28;20494;-78
2022/06/21 05:15:33;;;;;;;4.33;3.63;;;;;;;;;;5072730;28;20490;-78
2022/06/21 05:18:02;;;;;;;4.10;2.80;;;;;;;;;;5072665;28;20421;-79
2022/06/21 05:20:32;;;;;;;4.77;3.40;;;;;;;;;;5072404;28;20967;-77
2022/06/21 05:23:01;;;;;;;4.30;2.83;;;;;;;;;;5072022;28;20449;-78
2022/06/21 05:25:30;;;;;;;2.90;2.67;;;;;;;;;;5072358;28;21141;-79
2022/06/21 05:27:59;;;;;;;5.57;2.53;;;;;;;;;;5072821;28;20466;-78
2022/06/21 05:30:31;;;;;;;3.03;2.70;;;;;;;;;;5072877;28;20503;-77
2022/06/21 05:33:00;;;;;;;4.00;2.90;;;;;;;;;;5071541;28;20464;-79
2022/06/21 05:35:32;;;;;;;9.10;3.40;;;;;;;;;;5070621;28;20441;-78
2022/06/21 05:38:01;;;;;;;2.80;2.60;;;;;;;;;;5064369;28;20449;-78
2022/06/21 05:40:34;;;;;;;2.97;2.70;;;;;;;;;;5060872;28;20502;-77
2022/06/21 05:43:01;;;;;;;3.37;2.60;;;;;;;;;;5052323;28;20847;-78
2022/06/21 05:45:31;;;;;;;5.47;2.70;;;;;;;;;;5052297;28;21079;-78
2022/06/21 05:47:59;;;;;;;5.30;2.70;;;;;;;;;;5052482;28;20441;-77
2022/06/21 05:50:28;;;;;;;6.00;2.33;;;;;;;;;;5052546;28;20458;-78
2022/06/21 05:52:58;;;;;;;3.40;2.87;;;;;;;;;;5052443;28;20441;-77
2022/06/21 05:55:28;;;;;;;2.83;2.63;;;;;;;;;;5052549;28;20438;-78
2022/06/21 05:57:58;;;;;;;5.90;2.80;;;;;;;;;;5055963;28;20454;-78
2022/06/21 06:00:27;;;;;;;3.73;3.40;;;;;;;;;;5067788;28;20469;-78
2022/06/21 06:02:56;;;;;;;3.27;2.37;;;;;;;;;;5071211;28;20437;-78
2022/06/21 06:05:27;;;;;;;4.27;2.70;;;;;;;;;;5072488;28;20557;-78
2022/06/21 06:07:56;;;;;;;4.37;2.50;;;;;;;;;;5072206;28;20440;-78
2022/06/21 06:10:24;;;;;;;5.37;2.70;;;;;;;;;;5071636;28;20471;-78
2022/06/21 06:12:55;;;;;;;8.87;3.17;;;;;;;;;;5072452;28;20452;-80
2022/06/21 06:15:24;;;;;;;2.97;2.47;;;;;;;;;;5072086;28;20445;-78
2022/06/21 06:17:54;;;;;;;4.40;2.70;;;;;;;;;;5072134;28;20437;-78
2022/06/21 06:20:25;;;;;;;3.70;2.70;;;;;;;;;;5071885;28;20460;-79
2022/06/21 06:22:55;;;;;;;5.60;2.80;;;;;;;;;;5072040;28;20858;-79
2022/06/21 06:25:24;;;;;;;3.57;2.43;;;;;;;;;;5072069;28;20484;-80
2022/06/21 06:27:57;;;;;;;2.60;2.20;;;;;;;;;;5071361;28;20449;-78
2022/06/21 06:30:26;;;;;;;5.50;2.80;;;;;;;;;;5072010;28;20885;-78
2022/06/21 06:32:57;;;;;;;3.30;2.80;;;;;;;;;;5072100;28;20673;-80
2022/06/21 06:35:26;;;;;;;3.10;2.37;;;;;;;;;;5073028;28;20506;-79
2022/06/21 06:37:53;;;;;;;3.30;2.53;;;;;;;;;;5072563;28;20440;-78
2022/06/21 06:40:23;;;;;;;2.73;2.53;;;;;;;;;;5072188;28;20461;-79
2022/06/21 06:42:52;;;;;;;8.33;2.33;;;;;;;;;;5071341;28;20815;-78
2022/06/21 06:45:22;;;;;;;2.30;2.10;;;;;;;;;;5074065;28;20872;-78
2022/06/21 06:47:50;;;;;;;4.13;2.30;;;;;;;;;;5075861;28;21002;-79
2022/06/21 06:50:18;;;;;;;3.70;2.50;;;;;;;;;;5065519;28;20468;-79
2022/06/21 06:52:47;;;;;;;3.80;2.20;;;;;;;;;;5055707;28;20442;-79
2022/06/21 06:55:16;;;;;;;2.80;2.60;;;;;;;;;;5056871;28;20452;-78
2022/06/21 06:57:45;;;;;;;2.70;2.43;;;;;;;;;;5062173;28;20437;-78
2022/06/21 07:00:14;;;;;;;3.23;2.90;;;;;;;;;;5055627;28;20549;-78
2022/06/21 07:02:46;;;;;;;3.13;2.67;;;;;;;;;;5069069;28;20498;-78
2022/06/21 07:05:14;;;;;;;3.50;3.20;;;;;;;;;;5075200;28;20552;-78
2022/06/21 07:07:45;;;;;;;3.80;2.97;;;;;;;;;;5074676;28;20445;-79
2022/06/21 07:10:14;;;;;;;2.63;2.43;;;;;;;;;;5074583;28;20468;-78
2022/06/21 07:12:41;;;;;;;4.77;2.67;;;;;;;;;;5074700;28;20448;-78
2022/06/21 07:15:10;;;;;;;6.20;2.70;;;;;;;;;;5075319;28;20494;-78
2022/06/21 07:17:39;;;;;;;4.00;3.13;;;;;;;;;;5075637;28;20904;-79
2022/06/21 07:20:14;;;;;;;5.07;3.00;;;;;;;;;;5075330;28;20544;-80
2022/06/21 07:22:41;;;;;;;3.13;2.83;;;;;;;;;;5074458;28;20479;-79
2022/06/21 07:25:21;;;;;;;12.50;8.13;;;;;;;;;;5074805;28;20476;-78
2022/06/21 07:27:51;;;;;;;8.53;5.73;;;;;;;;;;5075109;28;20440;-78
2022/06/21 07:30:18;;;;;;;6.77;4.37;;;;;;;;;;5074603;28;20464;-78
2022/06/21 07:32:48;;;;;;;5.53;2.80;;;;;;;;;;5073788;28;20853;-78
2022/06/21 07:35:19;;;;;;;8.13;2.57;;;;;;;;;;5074313;28;20486;-79
2022/06/21 07:37:47;;;;;;;4.10;3.27;;;;;;;;;;5074751;28;20868;-78
2022/06/21 07:40:18;;;;;;;5.10;3.33;;;;;;;;;;5074346;28;20467;-78
2022/06/21 07:42:47;;;;;;;6.43;3.97;;;;;;;;;;5074042;28;20444;-79
2022/06/21 07:45:16;;;;;;;3.13;2.80;;;;;;;;;;5073711;28;20529;-78
2022/06/21 07:47:46;;;;;;;3.73;2.47;;;;;;;;;;5074315;28;20448;-79
2022/06/21 07:50:16;;;;;;;3.30;3.10;;;;;;;;;;5074069;28;20973;-77
2022/06/21 07:52:46;;;;;;;3.47;2.90;;;;;;;;;;5074025;28;20522;-78
2022/06/21 07:55:15;;;;;;;4.07;2.87;;;;;;;;;;5073369;28;20933;-78
2022/06/21 07:57:46;;;;;;;4.40;2.60;;;;;;;;;;5073809;28;20447;-79
2022/06/21 08:00:15;;;;;;;2.90;2.60;;;;;;;;;;5073980;28;20475;-79
2022/06/21 08:08:31;;;;;;;3.43;2.40;;;;;;;;;;5073674;28;20416;-80
2022/06/21 08:11:00;;;;;;;3.27;2.90;;;;;;;;;;5073371;28;20541;-80
2022/06/21 08:13:27;;;;;;;2.90;2.50;;;;;;;;;;5073757;28;20448;-79
2022/06/21 08:15:57;;;;;;;3.90;2.70;;;;;;;;;;5073663;28;20440;-79
2022/06/21 08:18:28;;;;;;;6.93;3.00;;;;;;;;;;5073471;28;20448;-79
2022/06/21 08:20:57;;;;;;;3.90;2.37;;;;;;;;;;5073624;28;20486;-79
2022/06/21 08:23:28;;;;;;;2.93;2.60;;;;;;;;;;5073585;28;20448;-81
2022/06/21 08:25:59;;;;;;;2.70;2.50;;;;;;;;;;5073469;28;21007;-79
2022/06/21 08:28:30;;;;;;;2.67;2.47;;;;;;;;;;5073422;28;20444;-78
2022/06/21 08:30:58;;;;;;;2.93;2.57;;;;;;;;;;5073115;28;20465;-79
2022/06/21 08:33:27;;;;;;;2.70;2.50;;;;;;;;;;5073089;28;20506;-80
2022/06/21 08:35:58;;;;;;;2.57;2.47;;;;;;;;;;5073379;28;20486;-77
2022/06/21 08:38:27;;;;;;;2.83;2.53;;;;;;;;;;5073407;28;20456;-79
2022/06/21 08:44:10;;;;;;;3.83;2.80;;;;;;;;;;5072197;28;20964;-78
2022/06/21 08:46:51;;;;;;;3.43;2.73;;;;;;;;;;5072836;28;20533;-81
2022/06/21 08:49:29;;;;;;;2.23;2.10;;;;;;;;;;5073170;28;20440;-78
2022/06/21 08:52:29;;;;;;;3.40;3.10;;;;;;;;;;5073343;28;20471;-79
2022/06/21 08:55:03;;;;;;;3.53;3.23;;;;;;;;;;5010823;28;20447;-80
2022/06/21 08:57:35;;;;;;;3.00;2.60;;;;;;;;;;5011035;28;20451;-78
2022/06/21 09:00:05;;;;;;;4.70;2.80;;;;;;;;;;5042666;28;20514;-78
2022/06/21 09:02:37;;;;;;;4.13;2.97;;;;;;;;;;5072575;28;20699;-79
2022/06/21 09:05:10;;;;;;;3.80;2.77;;;;;;;;;;5072469;28;20889;-79
2022/06/21 09:07:45;;;;;;;4.00;2.83;;;;;;;;;;5071431;28;20498;-79
2022/06/21 09:10:17;;;;;;;4.17;3.23;;;;;;;;;;5052941;28;20463;-78
2022/06/21 09:12:51;;;;;;;3.60;2.80;;;;;;;;;;5053355;28;20492;-78
2022/06/21 09:15:27;;;;;;;3.33;3.03;;;;;;;;;;5054785;28;20535;-77
2022/06/21 09:18:00;;;;;;;4.10;3.10;;;;;;;;;;5053058;28;20445;-79
2022/06/21 09:20:32;;;;;;;3.30;2.70;;;;;;;;;;5052659;28;21005;-78
2022/06/21 09:23:06;;;;;;;3.50;2.90;;;;;;;;;;5051986;28;20945;-79
2022/06/21 09:25:38;;;;;;;3.63;2.53;;;;;;;;;;5053052;28;20534;-80
2022/06/21 09:28:08;;;;;;;4.10;2.83;;;;;;;;;;5052635;28;20532;-78
2022/06/21 09:30:38;;;;;;;4.93;2.70;;;;;;;;;;5052534;28;20465;-79
2022/06/21 09:33:08;;;;;;;2.67;2.53;;;;;;;;;;5052105;28;20937;-79
2022/06/21 09:35:41;;;;;;;2.63;2.43;;;;;;;;;;5052712;28;20495;-78
2022/06/21 09:38:12;;;;;;;4.23;2.53;;;;;;;;;;5052389;28;20445;-81
2022/06/21 09:40:42;;;;;;;3.27;2.97;;;;;;;;;;5055403;28;20527;-77
2022/06/21 09:43:15;;;;;;;3.50;3.20;;;;;;;;;;5057959;28;20461;-79
2022/06/21 09:45:44;;;;;;;7.23;3.37;;;;;;;;;;5057439;28;20555;-79
2022/06/21 09:48:16;;;;;;;4.07;3.00;;;;;;;;;;5058573;28;20454;-78
2022/06/21 09:50:48;;;;;;;2.60;2.43;;;;;;;;;;5057804;28;20460;-79
2022/06/21 09:53:19;;;;;;;2.40;2.27;;;;;;;;;;5076280;28;20440;-77
2022/06/21 09:55:49;;;;;;;4.07;2.60;;;;;;;;;;5081229;28;20433;-78
2022/06/21 09:58:20;;;;;;;4.50;2.73;;;;;;;;;;5086370;28;20459;-79
2022/06/21 10:00:49;;;;;;;4.50;2.63;;;;;;;;;;5081547;28;20862;-79
2022/06/21 10:03:21;;;;;;;3.27;2.60;;;;;;;;;;5081027;28;20475;-79
2022/06/21 10:05:52;;;;;;;2.90;2.70;;;;;;;;;;5085028;28;20502;-78
2022/06/21 10:08:26;;;;;;;2.80;2.63;;;;;;;;;;5088704;28;20441;-78
2022/06/21 10:11:02;;;;;;;2.90;2.70;;;;;;;;;;5072233;28;20518;-78
2022/06/21 10:13:42;;;;;;;4.40;3.13;;;;;;;;;;5072539;28;20436;-79
2022/06/21 10:16:19;;;;;;;2.47;2.27;;;;;;;;;;5068913;28;20448;-78
2022/06/21 10:18:57;;;;;;;5.40;2.80;;;;;;;;;;5060573;28;20967;-79
2022/06/21 10:21:33;;;;;;;3.50;2.93;;;;;;;;;;5061098;28;20538;-79
2022/06/21 10:24:09;;;;;;;2.93;2.60;;;;;;;;;;5071721;28;20478;-79
2022/06/21 10:26:47;;;;;;;4.87;3.40;;;;;;;;;;5072047;28;20471;-78
2022/06/21 10:29:26;;;;;;;3.33;3.13;;;;;;;;;;5068524;28;20444;-79
2022/06/21 10:32:09;;;;;;;3.10;2.80;;;;;;;;;;5068776;28;20522;-79
2022/06/21 10:34:48;;;;;;;4.57;2.90;;;;;;;;;;5071651;28;20460;-79
2022/06/21 10:37:28;;;;;;;4.80;3.17;;;;;;;;;;5072071;28;20482;-79
2022/06/21 10:40:03;;;;;;;2.77;2.57;;;;;;;;;;5072003;28;20762;-80
2022/06/21 10:42:48;;;;;;;5.60;2.63;;;;;;;;;;5072156;28;20432;-81
2022/06/21 10:45:23;;;;;;;6.67;3.33;;;;;;;;;;5072066;28;20791;-79
2022/06/21 10:47:59;;;;;;;3.17;2.87;;;;;;;;;;5071253;28;20440;-79
2022/06/21 10:50:35;;;;;;;4.67;3.27;;;;;;;;;;5065665;28;20547;-79
2022/06/21 10:53:12;;;;;;;2.97;2.77;;;;;;;;;;5061914;28;20512;-80
2022/06/21 10:55:47;;;;;;;3.50;2.60;;;;;;;;;;5050879;28;20425;-79
2022/06/21 10:58:21;;;;;;;3.00;2.70;;;;;;;;;;5051583;28;20488;-79
2022/06/21 11:04:06;;;;;;;3.67;3.37;;;;;;;;;;5051567;28;20833;-79
2022/06/21 11:06:39;;;;;;;3.20;2.90;;;;;;;;;;5016052;28;20504;-80
2022/06/21 11:09:09;;;;;;;4.17;3.77;;;;;;;;;;5051365;28;20999;-79
2022/06/21 11:11:42;;;;;;;3.80;3.33;;;;;;;;;;5051405;28;21155;-81
2022/06/21 11:14:14;;;;;;;4.20;3.30;;;;;;;;;;5052260;28;20920;-79
2022/06/21 11:16:48;;;;;;;4.07;3.23;;;;;;;;;;5052538;28;20472;-80
2022/06/21 11:19:19;;;;;;;4.47;3.57;;;;;;;;;;5051549;28;20453;-78
2022/06/21 11:21:51;;;;;;;3.67;3.37;;;;;;;;;;5051413;28;20535;-79
2022/06/21 11:24:25;;;;;;;3.70;3.40;;;;;;;;;;5051542;28;20440;-79
2022/06/21 11:27:01;;;;;;;3.23;3.00;;;;;;;;;;5051628;28;20985;-80
2022/06/21 11:29:32;;;;;;;3.50;3.07;;;;;;;;;;5051385;28;20436;-79
2022/06/21 11:32:07;;;;;;;3.60;3.30;;;;;;;;;;5054260;28;20477;-79
2022/06/21 11:34:38;;;;;;;4.80;3.60;;;;;;;;;;5055243;28;20429;-79
2022/06/21 11:37:10;;;;;;;4.23;3.83;;;;;;;;;;5055398;28;20483;-78
2022/06/21 11:39:38;;;;;;;4.10;3.80;;;;;;;;;;5055241;28;20438;-78
2022/06/21 11:42:09;;;;;;;4.13;3.30;;;;;;;;;;5054818;28;20589;-80
2022/06/21 11:44:42;;;;;;;4.97;3.37;;;;;;;;;;5055106;28;20488;-80
2022/06/21 11:47:12;;;;;;;8.17;3.43;;;;;;;;;;5055058;28;20492;-79
2022/06/21 11:49:45;;;;;;;3.53;3.23;;;;;;;;;;5054869;28;20430;-80
2022/06/21 11:52:31;;;;;;;3.63;3.33;;;;;;;;;;5054293;28;20524;-79
2022/06/21 11:55:03;;;;;;;3.97;3.57;;;;;;;;;;5055224;28;20437;-82
2022/06/21 11:57:35;;;;;;;6.17;4.47;;;;;;;;;;5054673;28;20418;-77
2022/06/21 12:00:07;;;;;;;3.90;3.60;;;;;;;;;;5064947;28;20441;-76
2022/06/21 12:02:43;;;;;;;6.00;3.60;;;;;;;;;;5072995;28;20440;-79
2022/06/21 12:05:18;;;;;;;3.60;3.33;;;;;;;;;;5073453;28;20466;-79
2022/06/21 12:07:47;;;;;;;4.00;3.70;;;;;;;;;;5073131;28;20941;-80
2022/06/21 12:10:20;;;;;;;5.83;3.73;;;;;;;;;;5073643;28;20873;-80
2022/06/21 12:12:55;;;;;;;4.50;3.67;;;;;;;;;;5074816;28;20540;-78
2022/06/21 12:15:30;;;;;;;4.00;3.70;;;;;;;;;;5073786;28;20781;-80
2022/06/21 12:17:59;;;;;;;5.17;4.33;;;;;;;;;;5066241;28;20912;-79
2022/06/21 12:20:28;;;;;;;4.07;3.63;;;;;;;;;;5062245;28;20498;-80
2022/06/21 12:22:57;;;;;;;5.37;4.43;;;;;;;;;;5073308;28;20471;-79
2022/06/21 12:25:25;;;;;;;3.93;3.60;;;;;;;;;;5074150;28;20495;-78
2022/06/21 12:27:58;;;;;;;5.40;3.40;;;;;;;;;;5073105;28;20488;-79
2022/06/21 12:30:26;;;;;;;4.90;4.43;;;;;;;;;;5073107;28;20968;-80
2022/06/21 12:32:57;;;;;;;7.13;3.60;;;;;;;;;;5072322;28;20858;-78
2022/06/21 12:35:41;;;;;;;4.43;4.03;;;;;;;;;;5073328;28;20448;-78
2022/06/21 12:38:11;;;;;;;4.33;3.93;;;;;;;;;;5073158;28;20815;-80
2022/06/21 12:40:40;;;;;;;4.67;4.23;;;;;;;;;;5073418;28;20556;-78
2022/06/21 12:43:15;;;;;;;4.67;4.00;;;;;;;;;;5071699;28;20441;-79
2022/06/21 12:45:50;;;;;;;6.13;3.90;;;;;;;;;;5072909;28;20532;-79
2022/06/21 12:48:22;;;;;;;5.37;4.00;;;;;;;;;;5072822;28;20880;-78
2022/06/21 12:50:55;;;;;;;5.77;4.50;;;;;;;;;;5072522;28;20522;-78
2022/06/21 12:53:36;;;;;;;4.90;4.40;;;;;;;;;;5072501;28;20532;-78
2022/06/21 12:56:07;;;;;;;5.60;4.17;;;;;;;;;;5072166;28;20452;-78
2022/06/21 12:58:41;;;;;;;4.63;3.70;;;;;;;;;;5072152;28;20444;-78
2022/06/21 13:01:14;;;;;;;4.27;3.90;;;;;;;;;;5072183;28;20878;-78
2022/06/21 13:03:57;;;;;;;4.50;4.20;;;;;;;;;;5072205;28;20494;-79
2022/06/21 13:06:32;;;;;;;5.00;4.27;;;;;;;;;;5072123;28;20495;-78
2022/06/21 13:09:07;;;;;;;6.87;4.90;;;;;;;;;;5072267;28;20509;-78
2022/06/21 13:11:40;;;;;;;3.90;3.60;;;;;;;;;;5072062;28;20960;-79
2022/06/21 13:14:21;;;;;;;4.47;4.07;;;;;;;;;;5071373;28;20849;-79
2022/06/21 13:16:53;;;;;;;6.17;3.73;;;;;;;;;;5072113;28;20466;-79
2022/06/21 13:19:32;;;;;;;4.40;3.97;;;;;;;;;;5071900;28;20448;-78
2022/06/21 13:22:11;;;;;;;4.57;4.17;;;;;;;;;;5071441;28;20468;-79
2022/06/21 13:24:44;;;;;;;4.73;4.13;;;;;;;;;;5071243;28;20497;-80
2022/06/21 13:27:17;;;;;;;4.03;3.73;;;;;;;;;;5071197;28;20481;-79
2022/06/21 13:30:00;;;;;;;5.07;4.00;;;;;;;;;;5071236;28;20482;-81
2022/06/21 13:32:29;;;;;;;5.30;4.80;;;;;;;;;;5070917;28;20460;-78
2022/06/21 13:34:58;;;;;;;5.80;4.30;;;;;;;;;;5070921;28;20441;-78
2022/06/21 13:37:37;;;;;;;5.33;4.20;;;;;;;;;;5071024;28;20862;-77
2022/06/21 13:40:08;;;;;;;5.07;4.67;;;;;;;;;;5071116;28;20460;-78
2022/06/21 13:42:38;;;;;;;4.10;3.80;;;;;;;;;;5069994;28;20729;-78
2022/06/21 13:45:12;;;;;;;4.87;4.57;;;;;;;;;;5070378;28;20437;-77
2022/06/21 13:47:41;;;;;;;4.80;4.40;;;;;;;;;;5070098;28;20476;-77
2022/06/21 13:50:16;;;;;;;5.00;4.50;;;;;;;;;;5070428;28;20456;-77
2022/06/21 13:52:50;;;;;;;4.67;3.83;;;;;;;;;;5066683;28;20795;-78
2022/06/21 13:55:20;;;;;;;5.23;4.73;;;;;;;;;;5069310;28;20959;-78
2022/06/21 13:57:51;;;;;;;4.23;3.83;;;;;;;;;;5070959;28;20505;-79
2022/06/21 14:00:19;;;;;;;4.77;4.30;;;;;;;;;;5061949;28;20469;-78
2022/06/21 14:02:50;;;;;;;4.40;4.10;;;;;;;;;;5068282;28;20448;-77
2022/06/21 14:05:19;;;;;;;3.93;3.70;;;;;;;;;;5070663;28;20490;-78
2022/06/21 14:07:51;;;;;;;6.80;4.90;;;;;;;;;;5070865;28;20599;-79
2022/06/21 14:10:20;;;;;;;6.97;4.50;;;;;;;;;;5070771;28;20510;-78
2022/06/21 14:12:52;;;;;;;4.50;4.20;;;;;;;;;;5070399;28;20445;-80
2022/06/21 14:15:21;;;;;;;5.07;4.57;;;;;;;;;;5073647;28;20444;-79
2022/06/21 14:17:51;;;;;;;5.50;5.10;;;;;;;;;;5074026;28;20463;-78
2022/06/21 14:20:21;;;;;;;4.83;4.43;;;;;;;;;;5070552;28;20465;-78
2022/06/21 14:22:54;;;;;;;7.70;4.33;;;;;;;;;;5069765;28;20898;-78
2022/06/21 14:25:27;;;;;;;5.03;4.70;;;;;;;;;;5070577;28;20461;-76
2022/06/21 14:27:57;;;;;;;5.47;4.47;;;;;;;;;;5070351;28;20480;-77
2022/06/21 14:30:26;;;;;;;5.00;4.53;;;;;;;;;;5070597;28;20576;-77
2022/06/21 14:32:55;;;;;;;4.90;4.30;;;;;;;;;;5070067;28;20940;-79
2022/06/21 14:35:25;;;;;;;4.33;4.03;;;;;;;;;;5070311;28;20444;-78
2022/06/21 14:37:56;;;;;;;4.90;4.40;;;;;;;;;;5070276;28;20440;-77
2022/06/21 14:40:26;;;;;;;5.00;4.50;;;;;;;;;;5070690;28;20491;-79
2022/06/21 14:42:54;;;;;;;4.20;3.80;;;;;;;;;;5070904;28;20989;-79
2022/06/21 14:45:23;;;;;;;4.97;4.57;;;;;;;;;;5071087;28;20875;-78
2022/06/21 14:47:52;;;;;;;5.77;4.50;;;;;;;;;;5070530;28;20476;-80
2022/06/21 14:50:24;;;;;;;5.47;4.50;;;;;;;;;;5070772;28;20465;-79
2022/06/21 14:53:01;;;;;;;4.37;3.97;;;;;;;;;;5070960;28;20441;-79
2022/06/21 14:55:41;;;;;;;4.90;4.50;;;;;;;;;;5070982;28;20441;-79
2022/06/21 14:58:16;;;;;;;5.80;4.97;;;;;;;;;;5070240;28;20464;-78
2022/06/21 15:00:47;;;;;;;4.40;4.10;;;;;;;;;;5069764;28;21006;-78
2022/06/21 15:03:18;;;;;;;5.03;4.63;;;;;;;;;;5070183;28;20444;-78
2022/06/21 15:06:02;;;;;;;4.90;4.50;;;;;;;;;;5071031;28;20452;-79
2022/06/21 15:08:41;;;;;;;5.10;4.60;;;;;;;;;;5065771;28;20481;-79
2022/06/21 15:11:13;;;;;;;5.40;4.60;;;;;;;;;;5053914;28;21037;-79
2022/06/21 15:13:47;;;;;;;4.60;4.30;;;;;;;;;;5053942;28;20449;-79
2022/06/21 15:16:17;;;;;;;4.83;4.43;;;;;;;;;;5053829;28;20944;-79
2022/06/21 15:18:51;;;;;;;5.20;4.70;;;;;;;;;;5053843;28;20855;-78
2022/06/21 15:21:21;;;;;;;5.37;4.20;;;;;;;;;;5053924;28;20878;-79